sensor_id;sensor_type;location;lat;lon;timestamp;temperature;humidity
78448;SHT31;67742;51.972;5.682;2024-02-21T00:01:46;12.3;68.2
78448;SHT31;67742;51.972;5.682;2024-02-21T00:04:15;12.3;68.1
78448;SHT31;67742;51.972;5.682;2024-02-21T00:06:43;12.3;68.2
78448;SHT31;67742;51.972;5.682;2024-02-21T00:09:12;12.3;68.2
78448;SHT31;67742;51.972;5.682;2024-02-21T00:11:40;12.3;68.0
78448;SHT31;67742;51.972;5.682;2024-02-21T00:14:09;12.3;68.1
78448;SHT31;67742;51.972;5.682;2024-02-21T00:16:38;12.3;67.9
78448;SHT31;67742;51.972;5.682;2024-02-21T00:19:08;12.3;68.1
78448;SHT31;67742;51.972;5.682;2024-02-21T00:21:37;12.3;68.0
78448;SHT31;67742;51.972;5.682;2024-02-21T00:24:06;12.3;68.1
78448;SHT31;67742;51.972;5.682;2024-02-21T00:26:34;12.3;68.0
78448;SHT31;67742;51.972;5.682;2024-02-21T00:29:03;12.3;68.0
78448;SHT31;67742;51.972;5.682;2024-02-21T00:31:31;12.3;68.1
78448;SHT31;67742;51.972;5.682;2024-02-21T00:34:00;12.3;68.0
78448;SHT31;67742;51.972;5.682;2024-02-21T00:36:29;12.3;68.0
78448;SHT31;67742;51.972;5.682;2024-02-21T00:38:57;12.3;68.1
78448;SHT31;67742;51.972;5.682;2024-02-21T00:41:25;12.3;68.1
78448;SHT31;67742;51.972;5.682;2024-02-21T00:43:54;12.3;68.0
78448;SHT31;67742;51.972;5.682;2024-02-21T00:46:22;12.3;67.9
78448;SHT31;67742;51.972;5.682;2024-02-21T00:48:51;12.4;67.8
78448;SHT31;67742;51.972;5.682;2024-02-21T00:51:19;12.4;67.9
78448;SHT31;67742;51.972;5.682;2024-02-21T00:53:48;12.4;67.7
78448;SHT31;67742;51.972;5.682;2024-02-21T00:56:16;12.4;67.8
78448;SHT31;67742;51.972;5.682;2024-02-21T00:58:44;12.4;67.7
78448;SHT31;67742;51.972;5.682;2024-02-21T01:01:13;12.4;67.8
78448;SHT31;67742;51.972;5.682;2024-02-21T01:03:41;12.4;67.6
78448;SHT31;67742;51.972;5.682;2024-02-21T01:06:10;12.4;67.5
78448;SHT31;67742;51.972;5.682;2024-02-21T01:08:38;12.4;67.6
78448;SHT31;67742;51.972;5.682;2024-02-21T01:11:07;12.4;67.6
78448;SHT31;67742;51.972;5.682;2024-02-21T01:13:41;12.4;67.4
78448;SHT31;67742;51.972;5.682;2024-02-21T01:16:28;12.4;67.3
78448;SHT31;67742;51.972;5.682;2024-02-21T01:18:56;12.4;67.3
78448;SHT31;67742;51.972;5.682;2024-02-21T01:21:25;12.4;67.3
78448;SHT31;67742;51.972;5.682;2024-02-21T01:23:54;12.4;67.2
78448;SHT31;67742;51.972;5.682;2024-02-21T01:26:22;12.4;67.1
78448;SHT31;67742;51.972;5.682;2024-02-21T01:28:50;12.4;67.2
78448;SHT31;67742;51.972;5.682;2024-02-21T01:31:19;12.4;67.3
78448;SHT31;67742;51.972;5.682;2024-02-21T01:33:47;12.4;67.2
78448;SHT31;67742;51.972;5.682;2024-02-21T01:36:16;12.4;67.1
78448;SHT31;67742;51.972;5.682;2024-02-21T01:38:46;12.4;67.2
78448;SHT31;67742;51.972;5.682;2024-02-21T01:41:15;12.4;67.4
78448;SHT31;67742;51.972;5.682;2024-02-21T01:43:52;12.4;67.1
78448;SHT31;67742;51.972;5.682;2024-02-21T01:46:21;12.4;67.2
78448;SHT31;67742;51.972;5.682;2024-02-21T01:48:54;12.4;67.0
78448;SHT31;67742;51.972;5.682;2024-02-21T01:51:23;12.4;67.1
78448;SHT31;67742;51.972;5.682;2024-02-21T01:53:54;12.4;67.1
78448;SHT31;67742;51.972;5.682;2024-02-21T01:56:23;12.4;67.0
78448;SHT31;67742;51.972;5.682;2024-02-21T01:58:55;12.4;66.9
78448;SHT31;67742;51.972;5.682;2024-02-21T02:01:25;12.4;66.8
78448;SHT31;67742;51.972;5.682;2024-02-21T02:03:57;12.4;66.9
78448;SHT31;67742;51.972;5.682;2024-02-21T02:06:27;12.4;67.0
78448;SHT31;67742;51.972;5.682;2024-02-21T02:08:55;12.3;67.0
78448;SHT31;67742;51.972;5.682;2024-02-21T02:11:25;12.3;66.9
78448;SHT31;67742;51.972;5.682;2024-02-21T02:13:53;12.3;67.0
78448;SHT31;67742;51.972;5.682;2024-02-21T02:16:21;12.3;67.2
78448;SHT31;67742;51.972;5.682;2024-02-21T02:18:50;12.3;67.1
78448;SHT31;67742;51.972;5.682;2024-02-21T02:21:24;12.3;67.2
78448;SHT31;67742;51.972;5.682;2024-02-21T02:23:55;12.3;67.1
78448;SHT31;67742;51.972;5.682;2024-02-21T02:26:24;12.3;67.1
78448;SHT31;67742;51.972;5.682;2024-02-21T02:28:54;12.3;67.1
78448;SHT31;67742;51.972;5.682;2024-02-21T02:31:22;12.3;67.2
78448;SHT31;67742;51.972;5.682;2024-02-21T02:33:51;12.3;67.4
78448;SHT31;67742;51.972;5.682;2024-02-21T02:36:19;12.3;67.5
78448;SHT31;67742;51.972;5.682;2024-02-21T02:38:47;12.3;67.6
78448;SHT31;67742;51.972;5.682;2024-02-21T02:41:16;12.3;67.5
78448;SHT31;67742;51.972;5.682;2024-02-21T02:43:44;12.3;67.3
78448;SHT31;67742;51.972;5.682;2024-02-21T02:46:13;12.3;67.4
78448;SHT31;67742;51.972;5.682;2024-02-21T02:48:41;12.3;67.5
78448;SHT31;67742;51.972;5.682;2024-02-21T02:51:11;12.3;67.6
78448;SHT31;67742;51.972;5.682;2024-02-21T02:53:39;12.3;67.8
78448;SHT31;67742;51.972;5.682;2024-02-21T02:56:16;12.3;67.7
78448;SHT31;67742;51.972;5.682;2024-02-21T02:58:44;12.3;67.7
78448;SHT31;67742;51.972;5.682;2024-02-21T03:01:12;12.3;67.6
78448;SHT31;67742;51.972;5.682;2024-02-21T03:03:41;12.3;67.7
78448;SHT31;67742;51.972;5.682;2024-02-21T03:06:11;12.3;67.8
78448;SHT31;67742;51.972;5.682;2024-02-21T03:08:40;12.4;67.6
78448;SHT31;67742;51.972;5.682;2024-02-21T03:11:09;12.4;67.7
78448;SHT31;67742;51.972;5.682;2024-02-21T03:13:38;12.3;67.7
78448;SHT31;67742;51.972;5.682;2024-02-21T03:16:08;12.3;67.6
78448;SHT31;67742;51.972;5.682;2024-02-21T03:18:37;12.3;67.7
78448;SHT31;67742;51.972;5.682;2024-02-21T03:21:06;12.3;67.7
78448;SHT31;67742;51.972;5.682;2024-02-21T03:23:34;12.3;67.7
78448;SHT31;67742;51.972;5.682;2024-02-21T03:26:03;12.3;67.7
78448;SHT31;67742;51.972;5.682;2024-02-21T03:28:32;12.3;67.7
78448;SHT31;67742;51.972;5.682;2024-02-21T03:31:00;12.3;67.8
78448;SHT31;67742;51.972;5.682;2024-02-21T03:33:28;12.3;67.8
78448;SHT31;67742;51.972;5.682;2024-02-21T03:35:57;12.3;67.6
78448;SHT31;67742;51.972;5.682;2024-02-21T03:38:25;12.3;67.6
78448;SHT31;67742;51.972;5.682;2024-02-21T03:40:54;12.3;67.6
78448;SHT31;67742;51.972;5.682;2024-02-21T03:43:22;12.3;67.6
78448;SHT31;67742;51.972;5.682;2024-02-21T03:45:51;12.4;67.7
78448;SHT31;67742;51.972;5.682;2024-02-21T03:48:19;12.4;67.6
78448;SHT31;67742;51.972;5.682;2024-02-21T03:50:48;12.4;67.6
78448;SHT31;67742;51.972;5.682;2024-02-21T03:53:16;12.4;67.5
78448;SHT31;67742;51.972;5.682;2024-02-21T03:55:45;12.4;67.4
78448;SHT31;67742;51.972;5.682;2024-02-21T03:58:15;12.4;67.3
78448;SHT31;67742;51.972;5.682;2024-02-21T04:00:43;12.4;67.3
78448;SHT31;67742;51.972;5.682;2024-02-21T04:03:12;12.4;67.5
78448;SHT31;67742;51.972;5.682;2024-02-21T04:05:40;12.4;67.4
78448;SHT31;67742;51.972;5.682;2024-02-21T04:08:09;12.4;67.4
78448;SHT31;67742;51.972;5.682;2024-02-21T04:10:38;12.4;67.2
78448;SHT31;67742;51.972;5.682;2024-02-21T04:13:07;12.4;67.2
78448;SHT31;67742;51.972;5.682;2024-02-21T04:15:37;12.4;67.3
78448;SHT31;67742;51.972;5.682;2024-02-21T04:18:06;12.4;67.1
78448;SHT31;67742;51.972;5.682;2024-02-21T04:20:35;12.4;67.2
78448;SHT31;67742;51.972;5.682;2024-02-21T04:23:04;12.4;67.4
78448;SHT31;67742;51.972;5.682;2024-02-21T04:25:32;12.4;67.3
78448;SHT31;67742;51.972;5.682;2024-02-21T04:28:01;12.4;67.2
78448;SHT31;67742;51.972;5.682;2024-02-21T04:30:30;12.4;67.3
78448;SHT31;67742;51.972;5.682;2024-02-21T04:32:58;12.4;67.3
78448;SHT31;67742;51.972;5.682;2024-02-21T04:35:27;12.4;67.2
78448;SHT31;67742;51.972;5.682;2024-02-21T04:37:56;12.4;67.1
78448;SHT31;67742;51.972;5.682;2024-02-21T04:40:24;12.4;67.1
78448;SHT31;67742;51.972;5.682;2024-02-21T04:42:53;12.4;67.1
78448;SHT31;67742;51.972;5.682;2024-02-21T04:45:21;12.3;67.1
78448;SHT31;67742;51.972;5.682;2024-02-21T04:47:49;12.3;67.1
78448;SHT31;67742;51.972;5.682;2024-02-21T04:50:18;12.3;67.2
78448;SHT31;67742;51.972;5.682;2024-02-21T04:52:49;12.3;67.2
78448;SHT31;67742;51.972;5.682;2024-02-21T04:55:17;12.3;67.3
78448;SHT31;67742;51.972;5.682;2024-02-21T04:57:46;12.3;67.5
78448;SHT31;67742;51.972;5.682;2024-02-21T05:00:15;12.2;67.6
78448;SHT31;67742;51.972;5.682;2024-02-21T05:02:44;12.2;67.4
78448;SHT31;67742;51.972;5.682;2024-02-21T05:05:12;12.2;67.5
78448;SHT31;67742;51.972;5.682;2024-02-21T05:07:43;12.2;67.5
78448;SHT31;67742;51.972;5.682;2024-02-21T05:10:11;12.2;67.3
78448;SHT31;67742;51.972;5.682;2024-02-21T05:12:40;12.2;67.4
78448;SHT31;67742;51.972;5.682;2024-02-21T05:15:09;12.2;67.3
78448;SHT31;67742;51.972;5.682;2024-02-21T05:17:40;12.2;67.5
78448;SHT31;67742;51.972;5.682;2024-02-21T05:20:10;12.2;67.2
78448;SHT31;67742;51.972;5.682;2024-02-21T05:22:39;12.2;67.5
78448;SHT31;67742;51.972;5.682;2024-02-21T05:25:08;12.2;67.4
78448;SHT31;67742;51.972;5.682;2024-02-21T05:27:37;12.2;67.5
78448;SHT31;67742;51.972;5.682;2024-02-21T05:30:11;12.2;67.6
78448;SHT31;67742;51.972;5.682;2024-02-21T05:32:40;12.2;67.3
78448;SHT31;67742;51.972;5.682;2024-02-21T05:35:09;12.2;67.5
78448;SHT31;67742;51.972;5.682;2024-02-21T05:37:38;12.2;67.4
78448;SHT31;67742;51.972;5.682;2024-02-21T05:40:08;12.2;67.4
78448;SHT31;67742;51.972;5.682;2024-02-21T05:42:38;12.2;67.5
78448;SHT31;67742;51.972;5.682;2024-02-21T05:45:08;12.2;67.4
78448;SHT31;67742;51.972;5.682;2024-02-21T05:47:36;12.2;67.4
78448;SHT31;67742;51.972;5.682;2024-02-21T05:50:06;12.1;67.5
78448;SHT31;67742;51.972;5.682;2024-02-21T05:52:35;12.1;67.6
78448;SHT31;67742;51.972;5.682;2024-02-21T05:55:06;12.1;67.8
78448;SHT31;67742;51.972;5.682;2024-02-21T05:57:35;12.1;67.7
78448;SHT31;67742;51.972;5.682;2024-02-21T06:00:06;12.1;67.7
78448;SHT31;67742;51.972;5.682;2024-02-21T06:02:34;12.1;67.6
78448;SHT31;67742;51.972;5.682;2024-02-21T06:05:03;12.1;67.6
78448;SHT31;67742;51.972;5.682;2024-02-21T06:07:34;12.1;67.6
78448;SHT31;67742;51.972;5.682;2024-02-21T06:10:06;12.1;67.5
78448;SHT31;67742;51.972;5.682;2024-02-21T06:12:35;12.1;67.6
78448;SHT31;67742;51.972;5.682;2024-02-21T06:15:04;12.1;67.5
78448;SHT31;67742;51.972;5.682;2024-02-21T06:17:33;12.1;67.6
78448;SHT31;67742;51.972;5.682;2024-02-21T06:20:02;12.1;67.6
78448;SHT31;67742;51.972;5.682;2024-02-21T06:22:32;12.0;67.4
78448;SHT31;67742;51.972;5.682;2024-02-21T06:25:00;12.0;67.6
78448;SHT31;67742;51.972;5.682;2024-02-21T06:27:29;12.0;67.6
78448;SHT31;67742;51.972;5.682;2024-02-21T06:29:57;12.0;67.8
78448;SHT31;67742;51.972;5.682;2024-02-21T06:32:26;12.0;67.7
78448;SHT31;67742;51.972;5.682;2024-02-21T06:34:54;12.0;67.7
78448;SHT31;67742;51.972;5.682;2024-02-21T06:37:23;12.0;67.6
78448;SHT31;67742;51.972;5.682;2024-02-21T06:39:52;12.0;67.6
78448;SHT31;67742;51.972;5.682;2024-02-21T06:42:20;12.0;67.6
78448;SHT31;67742;51.972;5.682;2024-02-21T06:44:49;12.0;67.7
78448;SHT31;67742;51.972;5.682;2024-02-21T06:47:17;12.0;67.8
78448;SHT31;67742;51.972;5.682;2024-02-21T06:49:51;12.0;67.6
78448;SHT31;67742;51.972;5.682;2024-02-21T06:52:20;12.0;67.7
78448;SHT31;67742;51.972;5.682;2024-02-21T06:54:50;12.0;67.6
78448;SHT31;67742;51.972;5.682;2024-02-21T06:57:21;12.0;67.3
78448;SHT31;67742;51.972;5.682;2024-02-21T06:59:49;12.0;67.6
78448;SHT31;67742;51.972;5.682;2024-02-21T07:02:18;12.0;67.7
78448;SHT31;67742;51.972;5.682;2024-02-21T07:04:47;12.0;67.7
78448;SHT31;67742;51.972;5.682;2024-02-21T07:07:16;12.0;67.7
78448;SHT31;67742;51.972;5.682;2024-02-21T07:09:44;12.0;67.6
78448;SHT31;67742;51.972;5.682;2024-02-21T07:12:15;12.0;67.4
78448;SHT31;67742;51.972;5.682;2024-02-21T07:14:44;12.0;67.3
78448;SHT31;67742;51.972;5.682;2024-02-21T07:17:12;12.0;67.4
78448;SHT31;67742;51.972;5.682;2024-02-21T07:19:41;12.0;67.2
78448;SHT31;67742;51.972;5.682;2024-02-21T07:22:09;12.0;67.2
78448;SHT31;67742;51.972;5.682;2024-02-21T07:24:38;12.0;67.3
78448;SHT31;67742;51.972;5.682;2024-02-21T07:27:08;12.0;67.2
78448;SHT31;67742;51.972;5.682;2024-02-21T07:29:39;12.0;67.0
78448;SHT31;67742;51.972;5.682;2024-02-21T07:32:09;12.0;66.9
78448;SHT31;67742;51.972;5.682;2024-02-21T07:34:38;12.0;67.2
78448;SHT31;67742;51.972;5.682;2024-02-21T07:37:08;12.0;67.1
78448;SHT31;67742;51.972;5.682;2024-02-21T07:39:37;12.0;67.1
78448;SHT31;67742;51.972;5.682;2024-02-21T07:42:08;12.0;67.2
78448;SHT31;67742;51.972;5.682;2024-02-21T07:44:36;12.0;67.1
78448;SHT31;67742;51.972;5.682;2024-02-21T07:47:05;12.0;67.2
78448;SHT31;67742;51.972;5.682;2024-02-21T07:49:44;12.0;67.4
78448;SHT31;67742;51.972;5.682;2024-02-21T07:52:15;12.0;67.2
78448;SHT31;67742;51.972;5.682;2024-02-21T07:54:44;12.0;67.2
78448;SHT31;67742;51.972;5.682;2024-02-21T07:57:12;12.0;67.2
78448;SHT31;67742;51.972;5.682;2024-02-21T07:59:40;12.0;67.2
78448;SHT31;67742;51.972;5.682;2024-02-21T08:02:11;12.0;67.0
78448;SHT31;67742;51.972;5.682;2024-02-21T08:04:40;12.0;67.2
78448;SHT31;67742;51.972;5.682;2024-02-21T08:07:09;12.0;67.1
78448;SHT31;67742;51.972;5.682;2024-02-21T08:09:39;12.0;67.0
78448;SHT31;67742;51.972;5.682;2024-02-21T08:12:08;12.0;67.1
78448;SHT31;67742;51.972;5.682;2024-02-21T08:14:37;12.0;67.1
78448;SHT31;67742;51.972;5.682;2024-02-21T08:17:05;12.0;67.2
78448;SHT31;67742;51.972;5.682;2024-02-21T08:19:34;12.0;67.1
78448;SHT31;67742;51.972;5.682;2024-02-21T08:22:02;12.0;67.0
78448;SHT31;67742;51.972;5.682;2024-02-21T08:24:31;12.0;66.9
78448;SHT31;67742;51.972;5.682;2024-02-21T08:27:00;12.0;66.8
78448;SHT31;67742;51.972;5.682;2024-02-21T08:29:28;12.0;67.0
78448;SHT31;67742;51.972;5.682;2024-02-21T08:31:58;12.0;67.0
78448;SHT31;67742;51.972;5.682;2024-02-21T08:34:27;12.0;67.0
78448;SHT31;67742;51.972;5.682;2024-02-21T08:37:00;12.0;67.0
78448;SHT31;67742;51.972;5.682;2024-02-21T08:39:31;12.0;66.8
78448;SHT31;67742;51.972;5.682;2024-02-21T08:41:59;12.0;67.0
78448;SHT31;67742;51.972;5.682;2024-02-21T08:44:28;12.0;66.9
78448;SHT31;67742;51.972;5.682;2024-02-21T08:46:56;12.1;67.0
78448;SHT31;67742;51.972;5.682;2024-02-21T08:49:25;12.1;66.9
78448;SHT31;67742;51.972;5.682;2024-02-21T08:51:55;12.1;66.7
78448;SHT31;67742;51.972;5.682;2024-02-21T08:54:23;12.1;66.7
78448;SHT31;67742;51.972;5.682;2024-02-21T08:56:51;12.1;66.7
78448;SHT31;67742;51.972;5.682;2024-02-21T08:59:20;12.1;66.7
78448;SHT31;67742;51.972;5.682;2024-02-21T09:01:49;12.1;66.5
78448;SHT31;67742;51.972;5.682;2024-02-21T09:04:18;12.1;66.3
78448;SHT31;67742;51.972;5.682;2024-02-21T09:06:47;12.1;66.3
78448;SHT31;67742;51.972;5.682;2024-02-21T09:09:16;12.1;66.6
78448;SHT31;67742;51.972;5.682;2024-02-21T09:11:46;12.1;66.3
78448;SHT31;67742;51.972;5.682;2024-02-21T09:14:17;12.1;66.7
78448;SHT31;67742;51.972;5.682;2024-02-21T09:16:45;12.1;66.6
78448;SHT31;67742;51.972;5.682;2024-02-21T09:19:14;12.1;66.9
78448;SHT31;67742;51.972;5.682;2024-02-21T09:21:44;12.1;66.7
78448;SHT31;67742;51.972;5.682;2024-02-21T09:24:13;12.1;66.9
78448;SHT31;67742;51.972;5.682;2024-02-21T09:26:41;12.1;66.8
78448;SHT31;67742;51.972;5.682;2024-02-21T09:29:09;12.1;66.9
78448;SHT31;67742;51.972;5.682;2024-02-21T09:31:38;12.2;66.8
78448;SHT31;67742;51.972;5.682;2024-02-21T09:34:07;12.2;66.7
78448;SHT31;67742;51.972;5.682;2024-02-21T09:36:37;12.2;66.7
78448;SHT31;67742;51.972;5.682;2024-02-21T09:39:06;12.2;66.5
78448;SHT31;67742;51.972;5.682;2024-02-21T09:41:44;12.3;66.4
78448;SHT31;67742;51.972;5.682;2024-02-21T09:44:14;12.3;67.0
78448;SHT31;67742;51.972;5.682;2024-02-21T09:46:52;12.3;66.8
78448;SHT31;67742;51.972;5.682;2024-02-21T09:49:31;12.3;66.6
78448;SHT31;67742;51.972;5.682;2024-02-21T09:52:05;12.4;66.4
78448;SHT31;67742;51.972;5.682;2024-02-21T09:54:34;12.4;65.9
78448;SHT31;67742;51.972;5.682;2024-02-21T09:57:04;12.4;65.7
78448;SHT31;67742;51.972;5.682;2024-02-21T09:59:33;12.4;65.9
78448;SHT31;67742;51.972;5.682;2024-02-21T10:02:02;12.4;65.7
78448;SHT31;67742;51.972;5.682;2024-02-21T10:04:31;12.4;65.8
78448;SHT31;67742;51.972;5.682;2024-02-21T10:07:00;12.5;65.7
78448;SHT31;67742;51.972;5.682;2024-02-21T10:09:30;12.5;66.2
78448;SHT31;67742;51.972;5.682;2024-02-21T10:12:10;12.5;65.8
78448;SHT31;67742;51.972;5.682;2024-02-21T10:14:39;12.5;65.9
78448;SHT31;67742;51.972;5.682;2024-02-21T10:17:08;12.5;65.3
78448;SHT31;67742;51.972;5.682;2024-02-21T10:19:37;12.6;65.8
78448;SHT31;67742;51.972;5.682;2024-02-21T10:22:07;12.6;65.7
78448;SHT31;67742;51.972;5.682;2024-02-21T10:24:37;12.6;65.8
78448;SHT31;67742;51.972;5.682;2024-02-21T10:27:08;12.6;65.5
78448;SHT31;67742;51.972;5.682;2024-02-21T10:29:38;12.6;65.8
78448;SHT31;67742;51.972;5.682;2024-02-21T10:32:10;12.6;65.7
78448;SHT31;67742;51.972;5.682;2024-02-21T10:34:40;12.6;65.8
78448;SHT31;67742;51.972;5.682;2024-02-21T10:37:10;12.6;65.8
78448;SHT31;67742;51.972;5.682;2024-02-21T10:39:40;12.6;66.1
78448;SHT31;67742;51.972;5.682;2024-02-21T10:42:11;12.6;65.9
78448;SHT31;67742;51.972;5.682;2024-02-21T10:44:41;12.6;66.2
78448;SHT31;67742;51.972;5.682;2024-02-21T10:47:12;12.6;66.5
78448;SHT31;67742;51.972;5.682;2024-02-21T10:49:45;12.6;66.7
78448;SHT31;67742;51.972;5.682;2024-02-21T10:52:27;12.6;66.9
78448;SHT31;67742;51.972;5.682;2024-02-21T10:54:56;12.6;67.0
78448;SHT31;67742;51.972;5.682;2024-02-21T10:57:26;12.6;67.4
78448;SHT31;67742;51.972;5.682;2024-02-21T10:59:56;12.6;67.3
78448;SHT31;67742;51.972;5.682;2024-02-21T11:02:28;12.6;67.6
78448;SHT31;67742;51.972;5.682;2024-02-21T11:04:59;12.6;67.1
78448;SHT31;67742;51.972;5.682;2024-02-21T11:07:30;12.6;67.2
78448;SHT31;67742;51.972;5.682;2024-02-21T11:10:00;12.7;67.0
78448;SHT31;67742;51.972;5.682;2024-02-21T11:12:34;12.7;66.8
78448;SHT31;67742;51.972;5.682;2024-02-21T11:15:06;12.7;66.9
78448;SHT31;67742;51.972;5.682;2024-02-21T11:17:35;12.7;66.4
78448;SHT31;67742;51.972;5.682;2024-02-21T11:20:13;12.8;66.7
78448;SHT31;67742;51.972;5.682;2024-02-21T11:22:43;12.8;66.0
78448;SHT31;67742;51.972;5.682;2024-02-21T11:25:23;12.8;66.0
78448;SHT31;67742;51.972;5.682;2024-02-21T11:28:02;12.8;65.6
78448;SHT31;67742;51.972;5.682;2024-02-21T11:30:35;12.8;65.6
78448;SHT31;67742;51.972;5.682;2024-02-21T11:33:06;12.9;65.6
78448;SHT31;67742;51.972;5.682;2024-02-21T11:35:36;12.9;65.6
78448;SHT31;67742;51.972;5.682;2024-02-21T11:38:13;12.9;65.5
78448;SHT31;67742;51.972;5.682;2024-02-21T11:40:45;12.9;65.0
78448;SHT31;67742;51.972;5.682;2024-02-21T11:43:15;12.9;64.9
78448;SHT31;67742;51.972;5.682;2024-02-21T11:45:43;12.9;64.9
78448;SHT31;67742;51.972;5.682;2024-02-21T11:48:12;12.9;65.2
78448;SHT31;67742;51.972;5.682;2024-02-21T11:50:41;12.9;64.6
78448;SHT31;67742;51.972;5.682;2024-02-21T11:53:10;12.9;64.8
78448;SHT31;67742;51.972;5.682;2024-02-21T11:55:39;12.9;64.4
78448;SHT31;67742;51.972;5.682;2024-02-21T11:58:07;12.9;64.7
78448;SHT31;67742;51.972;5.682;2024-02-21T12:00:35;12.9;64.7
78448;SHT31;67742;51.972;5.682;2024-02-21T12:03:05;12.9;64.8
78448;SHT31;67742;51.972;5.682;2024-02-21T12:05:34;12.9;64.5
78448;SHT31;67742;51.972;5.682;2024-02-21T12:08:06;12.9;64.4
78448;SHT31;67742;51.972;5.682;2024-02-21T12:10:36;12.9;64.2
78448;SHT31;67742;51.972;5.682;2024-02-21T12:13:08;12.9;64.5
78448;SHT31;67742;51.972;5.682;2024-02-21T12:15:38;12.9;64.9
78448;SHT31;67742;51.972;5.682;2024-02-21T12:18:10;12.9;64.9
78448;SHT31;67742;51.972;5.682;2024-02-21T12:20:41;12.9;64.7
78448;SHT31;67742;51.972;5.682;2024-02-21T12:23:14;12.9;64.1
78448;SHT31;67742;51.972;5.682;2024-02-21T12:25:43;13.0;64.9
78448;SHT31;67742;51.972;5.682;2024-02-21T12:28:12;13.0;64.5
78448;SHT31;67742;51.972;5.682;2024-02-21T12:30:44;13.1;64.4
78448;SHT31;67742;51.972;5.682;2024-02-21T12:33:12;13.1;64.4
78448;SHT31;67742;51.972;5.682;2024-02-21T12:35:42;13.1;63.6
78448;SHT31;67742;51.972;5.682;2024-02-21T12:38:10;13.2;63.7
78448;SHT31;67742;51.972;5.682;2024-02-21T12:40:40;13.2;63.6
78448;SHT31;67742;51.972;5.682;2024-02-21T12:43:09;13.2;64.0
78448;SHT31;67742;51.972;5.682;2024-02-21T12:45:37;13.2;63.3
78448;SHT31;67742;51.972;5.682;2024-02-21T12:48:07;13.2;62.7
78448;SHT31;67742;51.972;5.682;2024-02-21T12:50:35;13.3;63.1
78448;SHT31;67742;51.972;5.682;2024-02-21T12:53:04;13.3;63.2
78448;SHT31;67742;51.972;5.682;2024-02-21T12:55:32;13.3;63.2
78448;SHT31;67742;51.972;5.682;2024-02-21T12:58:03;13.3;62.7
78448;SHT31;67742;51.972;5.682;2024-02-21T13:00:33;13.3;62.5
78448;SHT31;67742;51.972;5.682;2024-02-21T13:03:02;13.3;62.5
78448;SHT31;67742;51.972;5.682;2024-02-21T13:05:32;13.3;62.6
78448;SHT31;67742;51.972;5.682;2024-02-21T13:08:00;13.3;62.7
78448;SHT31;67742;51.972;5.682;2024-02-21T13:10:29;13.3;62.7
78448;SHT31;67742;51.972;5.682;2024-02-21T13:13:00;13.3;62.8
78448;SHT31;67742;51.972;5.682;2024-02-21T13:15:28;13.3;62.3
78448;SHT31;67742;51.972;5.682;2024-02-21T13:17:58;13.3;62.5
78448;SHT31;67742;51.972;5.682;2024-02-21T13:20:27;13.3;62.7
78448;SHT31;67742;51.972;5.682;2024-02-21T13:22:55;13.3;63.0
78448;SHT31;67742;51.972;5.682;2024-02-21T13:25:24;13.4;62.7
78448;SHT31;67742;51.972;5.682;2024-02-21T13:27:52;13.4;62.4
78448;SHT31;67742;51.972;5.682;2024-02-21T13:30:22;13.4;62.6
78448;SHT31;67742;51.972;5.682;2024-02-21T13:32:52;13.4;62.6
78448;SHT31;67742;51.972;5.682;2024-02-21T13:35:21;13.4;62.2
78448;SHT31;67742;51.972;5.682;2024-02-21T13:37:49;13.4;62.4
78448;SHT31;67742;51.972;5.682;2024-02-21T13:40:18;13.4;62.1
78448;SHT31;67742;51.972;5.682;2024-02-21T13:42:47;13.4;62.0
78448;SHT31;67742;51.972;5.682;2024-02-21T13:45:16;13.4;62.5
78448;SHT31;67742;51.972;5.682;2024-02-21T13:47:48;13.4;62.4
78448;SHT31;67742;51.972;5.682;2024-02-21T13:50:19;13.4;62.7
78448;SHT31;67742;51.972;5.682;2024-02-21T13:52:48;13.4;62.1
78448;SHT31;67742;51.972;5.682;2024-02-21T13:55:19;13.5;62.3
78448;SHT31;67742;51.972;5.682;2024-02-21T13:57:50;13.5;62.2
78448;SHT31;67742;51.972;5.682;2024-02-21T14:00:19;13.5;62.6
78448;SHT31;67742;51.972;5.682;2024-02-21T14:02:50;13.5;61.9
78448;SHT31;67742;51.972;5.682;2024-02-21T14:05:21;13.5;62.0
78448;SHT31;67742;51.972;5.682;2024-02-21T14:07:49;13.5;62.4
78448;SHT31;67742;51.972;5.682;2024-02-21T14:10:20;13.5;61.9
78448;SHT31;67742;51.972;5.682;2024-02-21T14:12:49;13.5;61.8
78448;SHT31;67742;51.972;5.682;2024-02-21T14:15:18;13.5;61.7
78448;SHT31;67742;51.972;5.682;2024-02-21T14:17:49;13.5;61.8
78448;SHT31;67742;51.972;5.682;2024-02-21T14:20:17;13.5;61.5
78448;SHT31;67742;51.972;5.682;2024-02-21T14:22:48;13.5;61.5
78448;SHT31;67742;51.972;5.682;2024-02-21T14:25:16;13.5;61.2
78448;SHT31;67742;51.972;5.682;2024-02-21T14:27:45;13.5;60.8
78448;SHT31;67742;51.972;5.682;2024-02-21T14:30:13;13.5;60.4
78448;SHT31;67742;51.972;5.682;2024-02-21T14:32:44;13.5;60.5
78448;SHT31;67742;51.972;5.682;2024-02-21T14:35:13;13.4;60.8
78448;SHT31;67742;51.972;5.682;2024-02-21T14:37:42;13.4;61.0
78448;SHT31;67742;51.972;5.682;2024-02-21T14:40:14;13.4;61.3
78448;SHT31;67742;51.972;5.682;2024-02-21T14:42:43;13.4;61.4
78448;SHT31;67742;51.972;5.682;2024-02-21T14:45:13;13.4;61.0
78448;SHT31;67742;51.972;5.682;2024-02-21T14:47:42;13.4;60.6
78448;SHT31;67742;51.972;5.682;2024-02-21T14:50:11;13.4;60.6
78448;SHT31;67742;51.972;5.682;2024-02-21T14:52:39;13.4;60.7
78448;SHT31;67742;51.972;5.682;2024-02-21T14:55:12;13.4;60.6
78448;SHT31;67742;51.972;5.682;2024-02-21T14:57:41;13.4;61.0
78448;SHT31;67742;51.972;5.682;2024-02-21T15:00:12;13.4;61.3
78448;SHT31;67742;51.972;5.682;2024-02-21T15:02:41;13.4;61.5
78448;SHT31;67742;51.972;5.682;2024-02-21T15:05:10;13.4;61.5
78448;SHT31;67742;51.972;5.682;2024-02-21T15:07:41;13.4;61.4
78448;SHT31;67742;51.972;5.682;2024-02-21T15:10:10;13.4;61.9
78448;SHT31;67742;51.972;5.682;2024-02-21T15:12:38;13.3;62.1
78448;SHT31;67742;51.972;5.682;2024-02-21T15:15:08;13.3;62.3
78448;SHT31;67742;51.972;5.682;2024-02-21T15:17:37;13.3;62.1
78448;SHT31;67742;51.972;5.682;2024-02-21T15:20:07;13.3;62.5
78448;SHT31;67742;51.972;5.682;2024-02-21T15:22:36;13.3;62.9
78448;SHT31;67742;51.972;5.682;2024-02-21T15:25:05;13.3;63.3
78448;SHT31;67742;51.972;5.682;2024-02-21T15:27:39;13.2;63.6
78448;SHT31;67742;51.972;5.682;2024-02-21T15:30:09;13.2;63.7
78448;SHT31;67742;51.972;5.682;2024-02-21T15:32:38;13.2;63.9
78448;SHT31;67742;51.972;5.682;2024-02-21T15:35:10;13.2;64.6
78448;SHT31;67742;51.972;5.682;2024-02-21T15:37:40;13.1;64.7
78448;SHT31;67742;51.972;5.682;2024-02-21T15:40:10;13.1;64.6
78448;SHT31;67742;51.972;5.682;2024-02-21T15:42:39;13.1;65.0
78448;SHT31;67742;51.972;5.682;2024-02-21T15:45:08;13.0;65.3
78448;SHT31;67742;51.972;5.682;2024-02-21T15:47:37;13.0;65.2
78448;SHT31;67742;51.972;5.682;2024-02-21T15:50:06;13.0;65.7
78448;SHT31;67742;51.972;5.682;2024-02-21T15:52:36;13.0;65.9
78448;SHT31;67742;51.972;5.682;2024-02-21T15:55:06;12.9;65.6
78448;SHT31;67742;51.972;5.682;2024-02-21T15:57:37;12.9;66.1
78448;SHT31;67742;51.972;5.682;2024-02-21T16:00:07;12.9;66.1
78448;SHT31;67742;51.972;5.682;2024-02-21T16:02:38;12.9;66.5
78448;SHT31;67742;51.972;5.682;2024-02-21T16:05:09;12.9;66.3
78448;SHT31;67742;51.972;5.682;2024-02-21T16:07:38;12.9;66.4
78448;SHT31;67742;51.972;5.682;2024-02-21T16:10:08;12.9;66.6
78448;SHT31;67742;51.972;5.682;2024-02-21T16:12:37;12.9;66.7
78448;SHT31;67742;51.972;5.682;2024-02-21T16:15:09;12.9;66.6
78448;SHT31;67742;51.972;5.682;2024-02-21T16:17:39;12.9;66.4